Skip Navigation Links Skip Navigation Links

Current Weather

Tri-Township, Savanna, Ill.

For information only: do not use for flight planning or navigation.
Latest weather
Observation time Friday, May 29, 2020 6:35 PM CDT
Local time Friday, May 29, 2020 7:00 PM CDT
Flight conditions Visual Meteorological Conditions
Winds
Wind direction Northwest (320°)
Wind speed 7 mph
Wind gusting to 18 mph
Visibility 10 mi.
Sky condition
Ceiling 5,000 ft. broken clouds
Cloud layer broken clouds 5,000 ft.
Temperature 64°F
Dewpoint 46°F
Altimeter 30.09 in.Hg
Derived measurements
Relative humidity 52%
Density altitude 931 ft.
Remarks
Fully automated report.
Automated weather observing station with precipitation discriminator.
METAR KSFY 292335Z AUTO 32006G16KT 10SM BKN050 18/08 A3009 RMK AO2

Settings

Location code

InnerDrive.Weather 4.0.6770.0 Release CLR 4.0.30319.42000
Copyright ©2018 Inner Drive Technology. All rights reserved. Portions Copyright ©1986-2018 David Braverman.

Find weather

Site navigation


Skip Navigation Links

Place info

Page info

PayPal - The safer, easier way to pay online!

Return home.

Copyright ©2020 Inner Drive Technology. Purveyors of fine, hand-crafted computer software. Page printed 2020-05-30T00:00:14 UTC.